sensor_id;sensor_type;location;lat;lon;timestamp;P1;durP1;ratioP1;P2;durP2;ratioP2
21402;SDS011;10862;51.886;17.078;2024-01-15T00:01:49;26.30;;;18.47;;
21402;SDS011;10862;51.886;17.078;2024-01-15T00:04:15;22.60;;;16.67;;
21402;SDS011;10862;51.886;17.078;2024-01-15T00:06:40;24.63;;;17.83;;
21402;SDS011;10862;51.886;17.078;2024-01-15T00:09:06;31.90;;;19.73;;
21402;SDS011;10862;51.886;17.078;2024-01-15T00:11:32;27.33;;;19.20;;
21402;SDS011;10862;51.886;17.078;2024-01-15T00:13:57;23.23;;;17.90;;
21402;SDS011;10862;51.886;17.078;2024-01-15T00:16:23;28.40;;;20.33;;
21402;SDS011;10862;51.886;17.078;2024-01-15T00:18:49;29.77;;;21.17;;
21402;SDS011;10862;51.886;17.078;2024-01-15T00:21:15;37.30;;;23.53;;
21402;SDS011;10862;51.886;17.078;2024-01-15T00:23:44;26.43;;;19.93;;
21402;SDS011;10862;51.886;17.078;2024-01-15T00:26:10;32.13;;;19.83;;
21402;SDS011;10862;51.886;17.078;2024-01-15T00:28:38;25.37;;;16.33;;
21402;SDS011;10862;51.886;17.078;2024-01-15T00:31:04;35.03;;;22.03;;
21402;SDS011;10862;51.886;17.078;2024-01-15T00:33:30;25.10;;;18.40;;
21402;SDS011;10862;51.886;17.078;2024-01-15T00:35:56;30.40;;;19.03;;
21402;SDS011;10862;51.886;17.078;2024-01-15T00:38:22;33.33;;;19.53;;
21402;SDS011;10862;51.886;17.078;2024-01-15T00:40:48;30.37;;;18.30;;
21402;SDS011;10862;51.886;17.078;2024-01-15T00:43:13;30.93;;;22.87;;
21402;SDS011;10862;51.886;17.078;2024-01-15T00:45:40;31.87;;;21.23;;
21402;SDS011;10862;51.886;17.078;2024-01-15T00:48:05;32.43;;;26.33;;
21402;SDS011;10862;51.886;17.078;2024-01-15T00:50:31;30.43;;;21.37;;
21402;SDS011;10862;51.886;17.078;2024-01-15T00:52:57;34.47;;;22.13;;
21402;SDS011;10862;51.886;17.078;2024-01-15T00:55:22;27.07;;;19.03;;
21402;SDS011;10862;51.886;17.078;2024-01-15T00:57:48;31.30;;;19.77;;
21402;SDS011;10862;51.886;17.078;2024-01-15T01:00:14;30.33;;;19.30;;
21402;SDS011;10862;51.886;17.078;2024-01-15T01:02:40;29.40;;;20.10;;
21402;SDS011;10862;51.886;17.078;2024-01-15T01:05:05;30.30;;;19.20;;
21402;SDS011;10862;51.886;17.078;2024-01-15T01:07:31;38.30;;;22.07;;
21402;SDS011;10862;51.886;17.078;2024-01-15T01:09:57;33.13;;;20.27;;
21402;SDS011;10862;51.886;17.078;2024-01-15T01:12:23;30.60;;;18.80;;
21402;SDS011;10862;51.886;17.078;2024-01-15T01:14:48;27.53;;;19.27;;
21402;SDS011;10862;51.886;17.078;2024-01-15T01:17:14;29.93;;;20.50;;
21402;SDS011;10862;51.886;17.078;2024-01-15T01:19:39;40.80;;;22.80;;
21402;SDS011;10862;51.886;17.078;2024-01-15T01:22:05;32.37;;;23.23;;
21402;SDS011;10862;51.886;17.078;2024-01-15T01:24:31;39.70;;;24.83;;
21402;SDS011;10862;51.886;17.078;2024-01-15T01:26:56;38.93;;;23.37;;
21402;SDS011;10862;51.886;17.078;2024-01-15T01:29:22;26.77;;;21.80;;
21402;SDS011;10862;51.886;17.078;2024-01-15T01:31:48;33.47;;;21.40;;
21402;SDS011;10862;51.886;17.078;2024-01-15T01:34:14;27.00;;;20.37;;
21402;SDS011;10862;51.886;17.078;2024-01-15T01:36:41;28.00;;;20.97;;
21402;SDS011;10862;51.886;17.078;2024-01-15T01:39:07;38.37;;;22.50;;
21402;SDS011;10862;51.886;17.078;2024-01-15T01:41:32;25.23;;;18.70;;
21402;SDS011;10862;51.886;17.078;2024-01-15T01:43:58;35.07;;;22.03;;
21402;SDS011;10862;51.886;17.078;2024-01-15T01:46:24;32.50;;;19.73;;
21402;SDS011;10862;51.886;17.078;2024-01-15T01:48:51;27.87;;;20.50;;
21402;SDS011;10862;51.886;17.078;2024-01-15T01:51:17;29.27;;;21.10;;
21402;SDS011;10862;51.886;17.078;2024-01-15T01:53:45;29.90;;;26.63;;
21402;SDS011;10862;51.886;17.078;2024-01-15T01:56:11;28.90;;;20.73;;
21402;SDS011;10862;51.886;17.078;2024-01-15T01:58:37;30.33;;;25.23;;
21402;SDS011;10862;51.886;17.078;2024-01-15T02:01:04;30.87;;;27.83;;
21402;SDS011;10862;51.886;17.078;2024-01-15T02:03:32;31.57;;;21.63;;
21402;SDS011;10862;51.886;17.078;2024-01-15T02:05:59;31.40;;;21.80;;
21402;SDS011;10862;51.886;17.078;2024-01-15T02:08:25;24.67;;;19.87;;
21402;SDS011;10862;51.886;17.078;2024-01-15T02:10:51;27.37;;;20.03;;
21402;SDS011;10862;51.886;17.078;2024-01-15T02:13:17;33.60;;;19.83;;
21402;SDS011;10862;51.886;17.078;2024-01-15T02:15:43;30.30;;;19.13;;
21402;SDS011;10862;51.886;17.078;2024-01-15T02:18:09;28.73;;;19.13;;
21402;SDS011;10862;51.886;17.078;2024-01-15T02:20:34;34.60;;;22.53;;
21402;SDS011;10862;51.886;17.078;2024-01-15T02:25:38;23.97;;;18.87;;
21402;SDS011;10862;51.886;17.078;2024-01-15T02:28:05;25.10;;;21.10;;
21402;SDS011;10862;51.886;17.078;2024-01-15T02:30:34;29.97;;;20.67;;
21402;SDS011;10862;51.886;17.078;2024-01-15T02:33:04;22.87;;;17.43;;
21402;SDS011;10862;51.886;17.078;2024-01-15T02:35:30;27.97;;;19.80;;
21402;SDS011;10862;51.886;17.078;2024-01-15T02:37:55;25.67;;;18.03;;
21402;SDS011;10862;51.886;17.078;2024-01-15T02:40:21;33.87;;;19.60;;
21402;SDS011;10862;51.886;17.078;2024-01-15T02:42:47;27.27;;;19.43;;
21402;SDS011;10862;51.886;17.078;2024-01-15T02:45:12;24.50;;;18.00;;
21402;SDS011;10862;51.886;17.078;2024-01-15T02:47:38;20.90;;;17.93;;
21402;SDS011;10862;51.886;17.078;2024-01-15T02:50:04;24.63;;;19.83;;
21402;SDS011;10862;51.886;17.078;2024-01-15T02:52:30;23.50;;;16.97;;
21402;SDS011;10862;51.886;17.078;2024-01-15T02:54:56;24.10;;;19.40;;
21402;SDS011;10862;51.886;17.078;2024-01-15T02:57:21;27.27;;;18.17;;
21402;SDS011;10862;51.886;17.078;2024-01-15T02:59:47;25.97;;;18.13;;
21402;SDS011;10862;51.886;17.078;2024-01-15T03:02:12;28.30;;;17.83;;
21402;SDS011;10862;51.886;17.078;2024-01-15T03:04:42;22.10;;;18.40;;
21402;SDS011;10862;51.886;17.078;2024-01-15T03:07:11;18.03;;;16.17;;
21402;SDS011;10862;51.886;17.078;2024-01-15T03:09:37;24.53;;;18.57;;
21402;SDS011;10862;51.886;17.078;2024-01-15T03:12:02;30.70;;;27.73;;
21402;SDS011;10862;51.886;17.078;2024-01-15T03:14:28;22.40;;;18.70;;
21402;SDS011;10862;51.886;17.078;2024-01-15T03:16:54;26.80;;;23.53;;
21402;SDS011;10862;51.886;17.078;2024-01-15T03:19:20;29.03;;;26.00;;
21402;SDS011;10862;51.886;17.078;2024-01-15T03:21:47;28.47;;;25.77;;
21402;SDS011;10862;51.886;17.078;2024-01-15T03:24:13;29.10;;;21.13;;
21402;SDS011;10862;51.886;17.078;2024-01-15T03:26:39;23.17;;;19.30;;
21402;SDS011;10862;51.886;17.078;2024-01-15T03:29:05;25.77;;;19.37;;
21402;SDS011;10862;51.886;17.078;2024-01-15T03:31:31;21.40;;;18.70;;
21402;SDS011;10862;51.886;17.078;2024-01-15T03:33:56;24.13;;;19.07;;
21402;SDS011;10862;51.886;17.078;2024-01-15T03:36:22;24.63;;;20.63;;
21402;SDS011;10862;51.886;17.078;2024-01-15T03:38:48;23.17;;;19.33;;
21402;SDS011;10862;51.886;17.078;2024-01-15T03:41:13;26.03;;;19.80;;
21402;SDS011;10862;51.886;17.078;2024-01-15T03:43:39;24.03;;;19.93;;
21402;SDS011;10862;51.886;17.078;2024-01-15T03:46:05;27.67;;;20.47;;
21402;SDS011;10862;51.886;17.078;2024-01-15T03:48:30;32.63;;;20.07;;
21402;SDS011;10862;51.886;17.078;2024-01-15T03:50:56;19.50;;;16.77;;
21402;SDS011;10862;51.886;17.078;2024-01-15T03:53:22;28.67;;;18.07;;
21402;SDS011;10862;51.886;17.078;2024-01-15T03:55:47;24.60;;;18.47;;
21402;SDS011;10862;51.886;17.078;2024-01-15T03:58:13;26.27;;;18.77;;
21402;SDS011;10862;51.886;17.078;2024-01-15T04:00:40;23.17;;;16.37;;
21402;SDS011;10862;51.886;17.078;2024-01-15T04:03:05;27.93;;;18.57;;
21402;SDS011;10862;51.886;17.078;2024-01-15T04:05:31;28.20;;;23.47;;
21402;SDS011;10862;51.886;17.078;2024-01-15T04:07:57;25.17;;;17.93;;
21402;SDS011;10862;51.886;17.078;2024-01-15T04:10:23;21.03;;;17.87;;
21402;SDS011;10862;51.886;17.078;2024-01-15T04:12:48;25.17;;;17.90;;
21402;SDS011;10862;51.886;17.078;2024-01-15T04:15:14;23.87;;;16.83;;
21402;SDS011;10862;51.886;17.078;2024-01-15T04:17:40;27.23;;;18.37;;
21402;SDS011;10862;51.886;17.078;2024-01-15T04:20:06;24.43;;;16.17;;
21402;SDS011;10862;51.886;17.078;2024-01-15T04:22:32;17.53;;;14.83;;
21402;SDS011;10862;51.886;17.078;2024-01-15T04:24:59;21.53;;;15.80;;
21402;SDS011;10862;51.886;17.078;2024-01-15T04:27:24;30.23;;;18.13;;
21402;SDS011;10862;51.886;17.078;2024-01-15T04:29:50;32.20;;;18.03;;
21402;SDS011;10862;51.886;17.078;2024-01-15T04:32:16;39.60;;;18.83;;
21402;SDS011;10862;51.886;17.078;2024-01-15T04:34:41;33.73;;;18.37;;
21402;SDS011;10862;51.886;17.078;2024-01-15T04:37:07;35.47;;;17.60;;
21402;SDS011;10862;51.886;17.078;2024-01-15T04:39:32;59.13;;;24.70;;
21402;SDS011;10862;51.886;17.078;2024-01-15T04:41:58;74.60;;;26.80;;
21402;SDS011;10862;51.886;17.078;2024-01-15T04:44:24;66.90;;;26.10;;
21402;SDS011;10862;51.886;17.078;2024-01-15T04:46:49;78.43;;;28.27;;
21402;SDS011;10862;51.886;17.078;2024-01-15T04:49:15;72.50;;;34.37;;
21402;SDS011;10862;51.886;17.078;2024-01-15T04:51:40;47.33;;;26.10;;
21402;SDS011;10862;51.886;17.078;2024-01-15T04:54:06;73.60;;;26.13;;
21402;SDS011;10862;51.886;17.078;2024-01-15T04:56:32;62.00;;;25.30;;
21402;SDS011;10862;51.886;17.078;2024-01-15T04:58:57;54.67;;;22.53;;
21402;SDS011;10862;51.886;17.078;2024-01-15T05:01:23;62.33;;;28.07;;
21402;SDS011;10862;51.886;17.078;2024-01-15T05:03:48;47.90;;;23.23;;
21402;SDS011;10862;51.886;17.078;2024-01-15T05:06:15;46.93;;;25.00;;
21402;SDS011;10862;51.886;17.078;2024-01-15T05:08:40;30.77;;;22.50;;
21402;SDS011;10862;51.886;17.078;2024-01-15T05:11:06;48.60;;;22.47;;
21402;SDS011;10862;51.886;17.078;2024-01-15T05:13:32;40.43;;;22.93;;
21402;SDS011;10862;51.886;17.078;2024-01-15T05:15:57;54.27;;;28.40;;
21402;SDS011;10862;51.886;17.078;2024-01-15T05:18:23;40.47;;;26.07;;
21402;SDS011;10862;51.886;17.078;2024-01-15T05:20:49;35.47;;;21.90;;
21402;SDS011;10862;51.886;17.078;2024-01-15T05:23:14;35.97;;;22.27;;
21402;SDS011;10862;51.886;17.078;2024-01-15T05:25:40;43.30;;;24.30;;
21402;SDS011;10862;51.886;17.078;2024-01-15T05:28:06;33.97;;;23.73;;
21402;SDS011;10862;51.886;17.078;2024-01-15T05:30:31;36.17;;;25.37;;
21402;SDS011;10862;51.886;17.078;2024-01-15T05:32:57;34.90;;;21.97;;
21402;SDS011;10862;51.886;17.078;2024-01-15T05:35:25;30.43;;;22.03;;
21402;SDS011;10862;51.886;17.078;2024-01-15T05:37:50;39.13;;;23.40;;
21402;SDS011;10862;51.886;17.078;2024-01-15T05:40:16;31.80;;;20.93;;
21402;SDS011;10862;51.886;17.078;2024-01-15T05:42:42;27.23;;;22.17;;
21402;SDS011;10862;51.886;17.078;2024-01-15T05:45:08;27.63;;;23.13;;
21402;SDS011;10862;51.886;17.078;2024-01-15T05:47:34;31.50;;;27.47;;
21402;SDS011;10862;51.886;17.078;2024-01-15T05:50:00;26.97;;;21.97;;
21402;SDS011;10862;51.886;17.078;2024-01-15T05:52:26;31.73;;;21.40;;
21402;SDS011;10862;51.886;17.078;2024-01-15T05:54:52;30.33;;;19.53;;
21402;SDS011;10862;51.886;17.078;2024-01-15T05:57:17;34.57;;;20.63;;
21402;SDS011;10862;51.886;17.078;2024-01-15T05:59:44;33.77;;;21.33;;
21402;SDS011;10862;51.886;17.078;2024-01-15T06:02:10;32.00;;;22.03;;
21402;SDS011;10862;51.886;17.078;2024-01-15T06:04:35;32.20;;;20.70;;
21402;SDS011;10862;51.886;17.078;2024-01-15T06:07:01;24.07;;;18.20;;
21402;SDS011;10862;51.886;17.078;2024-01-15T06:09:27;21.70;;;17.57;;
21402;SDS011;10862;51.886;17.078;2024-01-15T06:11:53;24.63;;;17.73;;
21402;SDS011;10862;51.886;17.078;2024-01-15T06:14:19;26.63;;;19.37;;
21402;SDS011;10862;51.886;17.078;2024-01-15T06:16:45;37.03;;;21.87;;
21402;SDS011;10862;51.886;17.078;2024-01-15T06:19:10;44.57;;;26.73;;
21402;SDS011;10862;51.886;17.078;2024-01-15T06:21:36;35.77;;;25.47;;
21402;SDS011;10862;51.886;17.078;2024-01-15T06:24:01;42.33;;;27.07;;
21402;SDS011;10862;51.886;17.078;2024-01-15T06:26:27;31.40;;;22.13;;
21402;SDS011;10862;51.886;17.078;2024-01-15T06:28:53;33.27;;;24.10;;
21402;SDS011;10862;51.886;17.078;2024-01-15T06:31:18;27.30;;;20.07;;
21402;SDS011;10862;51.886;17.078;2024-01-15T06:33:44;23.53;;;18.40;;
21402;SDS011;10862;51.886;17.078;2024-01-15T06:36:12;45.90;;;23.83;;
21402;SDS011;10862;51.886;17.078;2024-01-15T06:38:38;37.60;;;23.23;;
21402;SDS011;10862;51.886;17.078;2024-01-15T06:41:03;31.47;;;17.87;;
21402;SDS011;10862;51.886;17.078;2024-01-15T06:43:29;41.80;;;24.53;;
21402;SDS011;10862;51.886;17.078;2024-01-15T06:45:55;39.37;;;21.03;;
21402;SDS011;10862;51.886;17.078;2024-01-15T06:48:20;37.10;;;20.23;;
21402;SDS011;10862;51.886;17.078;2024-01-15T06:50:46;30.90;;;21.07;;
21402;SDS011;10862;51.886;17.078;2024-01-15T06:53:12;34.27;;;21.40;;
21402;SDS011;10862;51.886;17.078;2024-01-15T06:55:38;36.90;;;27.83;;
21402;SDS011;10862;51.886;17.078;2024-01-15T06:58:04;46.10;;;35.40;;
21402;SDS011;10862;51.886;17.078;2024-01-15T07:00:30;38.97;;;26.83;;
21402;SDS011;10862;51.886;17.078;2024-01-15T07:02:55;58.77;;;30.93;;
21402;SDS011;10862;51.886;17.078;2024-01-15T07:05:22;50.67;;;28.50;;
21402;SDS011;10862;51.886;17.078;2024-01-15T07:07:48;37.90;;;25.73;;
21402;SDS011;10862;51.886;17.078;2024-01-15T07:10:14;34.90;;;24.33;;
21402;SDS011;10862;51.886;17.078;2024-01-15T07:12:43;37.60;;;23.40;;
21402;SDS011;10862;51.886;17.078;2024-01-15T07:15:09;36.43;;;22.60;;
21402;SDS011;10862;51.886;17.078;2024-01-15T07:17:35;47.03;;;29.03;;
21402;SDS011;10862;51.886;17.078;2024-01-15T07:20:04;31.50;;;23.23;;
21402;SDS011;10862;51.886;17.078;2024-01-15T07:22:37;40.30;;;29.07;;
21402;SDS011;10862;51.886;17.078;2024-01-15T07:25:03;28.70;;;22.23;;
21402;SDS011;10862;51.886;17.078;2024-01-15T07:27:30;31.13;;;23.23;;
21402;SDS011;10862;51.886;17.078;2024-01-15T07:29:56;30.40;;;21.47;;
21402;SDS011;10862;51.886;17.078;2024-01-15T07:32:22;26.30;;;20.93;;
21402;SDS011;10862;51.886;17.078;2024-01-15T07:34:47;20.13;;;18.20;;
21402;SDS011;10862;51.886;17.078;2024-01-15T07:37:14;25.50;;;19.10;;
21402;SDS011;10862;51.886;17.078;2024-01-15T07:39:40;27.37;;;19.30;;
21402;SDS011;10862;51.886;17.078;2024-01-15T07:42:05;22.47;;;17.20;;
21402;SDS011;10862;51.886;17.078;2024-01-15T07:44:31;25.53;;;20.23;;
21402;SDS011;10862;51.886;17.078;2024-01-15T07:46:57;24.47;;;19.43;;
21402;SDS011;10862;51.886;17.078;2024-01-15T07:49:22;31.40;;;20.87;;
21402;SDS011;10862;51.886;17.078;2024-01-15T07:51:48;22.17;;;18.27;;
21402;SDS011;10862;51.886;17.078;2024-01-15T07:54:14;56.53;;;29.30;;
21402;SDS011;10862;51.886;17.078;2024-01-15T07:56:52;59.23;;;32.47;;
21402;SDS011;10862;51.886;17.078;2024-01-15T07:59:22;44.40;;;27.53;;
21402;SDS011;10862;51.886;17.078;2024-01-15T08:01:48;40.23;;;22.47;;
21402;SDS011;10862;51.886;17.078;2024-01-15T08:04:14;52.80;;;38.50;;
21402;SDS011;10862;51.886;17.078;2024-01-15T08:06:40;61.97;;;39.63;;
21402;SDS011;10862;51.886;17.078;2024-01-15T08:09:05;77.77;;;42.73;;
21402;SDS011;10862;51.886;17.078;2024-01-15T08:11:31;49.47;;;35.90;;
21402;SDS011;10862;51.886;17.078;2024-01-15T08:13:57;70.60;;;45.13;;
21402;SDS011;10862;51.886;17.078;2024-01-15T08:16:23;77.17;;;48.47;;
21402;SDS011;10862;51.886;17.078;2024-01-15T08:18:50;85.50;;;49.70;;
21402;SDS011;10862;51.886;17.078;2024-01-15T08:21:15;75.17;;;48.20;;
21402;SDS011;10862;51.886;17.078;2024-01-15T08:23:41;69.57;;;44.73;;
21402;SDS011;10862;51.886;17.078;2024-01-15T08:26:07;63.87;;;45.90;;
21402;SDS011;10862;51.886;17.078;2024-01-15T08:28:33;71.83;;;44.47;;
21402;SDS011;10862;51.886;17.078;2024-01-15T08:30:59;64.13;;;31.93;;
21402;SDS011;10862;51.886;17.078;2024-01-15T08:33:25;61.27;;;32.17;;
21402;SDS011;10862;51.886;17.078;2024-01-15T08:35:50;73.43;;;38.07;;
21402;SDS011;10862;51.886;17.078;2024-01-15T08:38:16;58.47;;;29.77;;
21402;SDS011;10862;51.886;17.078;2024-01-15T08:40:44;39.23;;;27.00;;
21402;SDS011;10862;51.886;17.078;2024-01-15T08:43:10;44.47;;;28.10;;
21402;SDS011;10862;51.886;17.078;2024-01-15T08:45:35;37.23;;;26.37;;
21402;SDS011;10862;51.886;17.078;2024-01-15T08:48:01;42.83;;;24.00;;
21402;SDS011;10862;51.886;17.078;2024-01-15T08:50:27;29.43;;;22.73;;
21402;SDS011;10862;51.886;17.078;2024-01-15T08:52:52;33.03;;;20.93;;
21402;SDS011;10862;51.886;17.078;2024-01-15T08:55:18;56.10;;;29.30;;
21402;SDS011;10862;51.886;17.078;2024-01-15T08:57:44;54.27;;;28.23;;
21402;SDS011;10862;51.886;17.078;2024-01-15T09:00:09;43.17;;;25.37;;
21402;SDS011;10862;51.886;17.078;2024-01-15T09:02:35;28.07;;;21.13;;
21402;SDS011;10862;51.886;17.078;2024-01-15T09:05:01;35.60;;;24.93;;
21402;SDS011;10862;51.886;17.078;2024-01-15T09:07:29;31.30;;;21.00;;
21402;SDS011;10862;51.886;17.078;2024-01-15T09:09:55;77.10;;;37.97;;
21402;SDS011;10862;51.886;17.078;2024-01-15T09:12:20;43.77;;;29.07;;
21402;SDS011;10862;51.886;17.078;2024-01-15T09:14:47;51.03;;;32.77;;
21402;SDS011;10862;51.886;17.078;2024-01-15T09:22:16;28.93;;;24.67;;
21402;SDS011;10862;51.886;17.078;2024-01-15T09:24:43;31.70;;;23.47;;
21402;SDS011;10862;51.886;17.078;2024-01-15T09:27:09;35.47;;;26.13;;
21402;SDS011;10862;51.886;17.078;2024-01-15T09:29:35;33.37;;;24.10;;
21402;SDS011;10862;51.886;17.078;2024-01-15T09:32:04;41.17;;;28.13;;
21402;SDS011;10862;51.886;17.078;2024-01-15T09:34:32;30.13;;;22.73;;
21402;SDS011;10862;51.886;17.078;2024-01-15T09:36:58;27.23;;;23.30;;
21402;SDS011;10862;51.886;17.078;2024-01-15T09:39:25;36.83;;;25.80;;
21402;SDS011;10862;51.886;17.078;2024-01-15T09:41:51;39.73;;;28.47;;
21402;SDS011;10862;51.886;17.078;2024-01-15T09:44:17;32.30;;;24.20;;
21402;SDS011;10862;51.886;17.078;2024-01-15T09:46:44;26.60;;;20.93;;
21402;SDS011;10862;51.886;17.078;2024-01-15T09:49:11;28.20;;;21.20;;
21402;SDS011;10862;51.886;17.078;2024-01-15T09:51:37;24.07;;;19.73;;
21402;SDS011;10862;51.886;17.078;2024-01-15T09:54:04;25.43;;;19.30;;
21402;SDS011;10862;51.886;17.078;2024-01-15T09:56:30;26.07;;;19.07;;
21402;SDS011;10862;51.886;17.078;2024-01-15T09:58:57;28.87;;;21.60;;
21402;SDS011;10862;51.886;17.078;2024-01-15T10:01:23;25.17;;;20.40;;
21402;SDS011;10862;51.886;17.078;2024-01-15T10:03:49;24.83;;;22.03;;
21402;SDS011;10862;51.886;17.078;2024-01-15T10:06:16;32.47;;;29.17;;
21402;SDS011;10862;51.886;17.078;2024-01-15T10:08:48;27.23;;;21.23;;
21402;SDS011;10862;51.886;17.078;2024-01-15T10:11:15;21.30;;;19.23;;
21402;SDS011;10862;51.886;17.078;2024-01-15T10:13:42;25.40;;;19.20;;
21402;SDS011;10862;51.886;17.078;2024-01-15T10:16:09;28.30;;;22.17;;
21402;SDS011;10862;51.886;17.078;2024-01-15T10:18:35;23.30;;;20.80;;
21402;SDS011;10862;51.886;17.078;2024-01-15T10:21:02;26.90;;;20.73;;
21402;SDS011;10862;51.886;17.078;2024-01-15T10:23:29;24.23;;;18.67;;
21402;SDS011;10862;51.886;17.078;2024-01-15T10:25:57;23.43;;;20.93;;
21402;SDS011;10862;51.886;17.078;2024-01-15T10:28:23;22.13;;;20.00;;
21402;SDS011;10862;51.886;17.078;2024-01-15T10:30:52;21.70;;;19.33;;
21402;SDS011;10862;51.886;17.078;2024-01-15T10:33:24;24.93;;;21.87;;
21402;SDS011;10862;51.886;17.078;2024-01-15T10:35:50;28.33;;;19.73;;
21402;SDS011;10862;51.886;17.078;2024-01-15T10:38:19;19.90;;;18.07;;
21402;SDS011;10862;51.886;17.078;2024-01-15T10:40:47;25.13;;;19.73;;
21402;SDS011;10862;51.886;17.078;2024-01-15T10:43:16;23.23;;;19.87;;
21402;SDS011;10862;51.886;17.078;2024-01-15T10:45:44;22.07;;;19.57;;
21402;SDS011;10862;51.886;17.078;2024-01-15T10:48:10;22.90;;;20.70;;
21402;SDS011;10862;51.886;17.078;2024-01-15T10:50:35;21.43;;;19.53;;
21402;SDS011;10862;51.886;17.078;2024-01-15T10:53:01;30.43;;;20.93;;
21402;SDS011;10862;51.886;17.078;2024-01-15T10:55:28;30.57;;;23.00;;
21402;SDS011;10862;51.886;17.078;2024-01-15T10:57:54;29.77;;;21.63;;
21402;SDS011;10862;51.886;17.078;2024-01-15T11:00:21;26.53;;;21.50;;
21402;SDS011;10862;51.886;17.078;2024-01-15T11:02:47;29.70;;;21.43;;
21402;SDS011;10862;51.886;17.078;2024-01-15T11:05:12;27.80;;;22.73;;
21402;SDS011;10862;51.886;17.078;2024-01-15T11:07:39;21.67;;;19.43;;
21402;SDS011;10862;51.886;17.078;2024-01-15T11:10:06;56.63;;;49.50;;
21402;SDS011;10862;51.886;17.078;2024-01-15T11:12:35;20.80;;;17.73;;
21402;SDS011;10862;51.886;17.078;2024-01-15T11:15:01;21.37;;;18.43;;
21402;SDS011;10862;51.886;17.078;2024-01-15T11:20:30;32.83;;;23.87;;
21402;SDS011;10862;51.886;17.078;2024-01-15T11:22:57;23.97;;;21.67;;
21402;SDS011;10862;51.886;17.078;2024-01-15T11:25:24;24.40;;;22.20;;
21402;SDS011;10862;51.886;17.078;2024-01-15T11:28:01;20.13;;;18.53;;
21402;SDS011;10862;51.886;17.078;2024-01-15T11:30:27;21.13;;;19.07;;
21402;SDS011;10862;51.886;17.078;2024-01-15T11:32:52;26.33;;;23.63;;
21402;SDS011;10862;51.886;17.078;2024-01-15T11:35:18;30.83;;;25.23;;
21402;SDS011;10862;51.886;17.078;2024-01-15T11:40:17;40.00;;;27.77;;
21402;SDS011;10862;51.886;17.078;2024-01-15T11:42:47;37.93;;;30.90;;
21402;SDS011;10862;51.886;17.078;2024-01-15T11:45:18;30.30;;;27.80;;
21402;SDS011;10862;51.886;17.078;2024-01-15T11:48:00;28.73;;;25.63;;
21402;SDS011;10862;51.886;17.078;2024-01-15T11:55:46;25.13;;;21.60;;
21402;SDS011;10862;51.886;17.078;2024-01-15T11:58:13;25.60;;;21.53;;
21402;SDS011;10862;51.886;17.078;2024-01-15T12:00:43;37.27;;;27.67;;
21402;SDS011;10862;51.886;17.078;2024-01-15T12:03:20;33.97;;;29.03;;
21402;SDS011;10862;51.886;17.078;2024-01-15T12:05:49;64.80;;;36.57;;
21402;SDS011;10862;51.886;17.078;2024-01-15T12:08:20;26.30;;;23.70;;
21402;SDS011;10862;51.886;17.078;2024-01-15T12:10:46;53.20;;;32.90;;
21402;SDS011;10862;51.886;17.078;2024-01-15T12:13:12;70.17;;;43.77;;
21402;SDS011;10862;51.886;17.078;2024-01-15T12:15:39;52.40;;;36.43;;
21402;SDS011;10862;51.886;17.078;2024-01-15T12:18:06;46.77;;;33.80;;
21402;SDS011;10862;51.886;17.078;2024-01-15T12:20:33;32.17;;;27.33;;
21402;SDS011;10862;51.886;17.078;2024-01-15T12:23:00;38.10;;;28.97;;
21402;SDS011;10862;51.886;17.078;2024-01-15T12:25:28;29.90;;;23.70;;
21402;SDS011;10862;51.886;17.078;2024-01-15T12:27:55;46.07;;;29.97;;
21402;SDS011;10862;51.886;17.078;2024-01-15T12:30:21;31.77;;;25.20;;
21402;SDS011;10862;51.886;17.078;2024-01-15T12:32:47;58.17;;;31.43;;
21402;SDS011;10862;51.886;17.078;2024-01-15T12:35:13;35.53;;;24.33;;
21402;SDS011;10862;51.886;17.078;2024-01-15T12:37:40;54.80;;;30.37;;
21402;SDS011;10862;51.886;17.078;2024-01-15T12:40:07;30.17;;;22.30;;
21402;SDS011;10862;51.886;17.078;2024-01-15T12:42:35;21.40;;;18.20;;
21402;SDS011;10862;51.886;17.078;2024-01-15T12:45:01;33.27;;;21.60;;
21402;SDS011;10862;51.886;17.078;2024-01-15T12:47:29;32.20;;;24.23;;
21402;SDS011;10862;51.886;17.078;2024-01-15T12:49:55;25.67;;;19.83;;
21402;SDS011;10862;51.886;17.078;2024-01-15T12:52:26;31.70;;;20.67;;
21402;SDS011;10862;51.886;17.078;2024-01-15T12:54:52;84.73;;;34.83;;
21402;SDS011;10862;51.886;17.078;2024-01-15T12:57:18;25.93;;;20.20;;
21402;SDS011;10862;51.886;17.078;2024-01-15T12:59:44;38.23;;;22.63;;
21402;SDS011;10862;51.886;17.078;2024-01-15T13:02:10;40.50;;;23.93;;
21402;SDS011;10862;51.886;17.078;2024-01-15T13:04:39;34.57;;;31.57;;
21402;SDS011;10862;51.886;17.078;2024-01-15T13:07:08;32.47;;;20.27;;
21402;SDS011;10862;51.886;17.078;2024-01-15T13:09:34;28.03;;;18.73;;
21402;SDS011;10862;51.886;17.078;2024-01-15T13:12:01;20.63;;;18.43;;
21402;SDS011;10862;51.886;17.078;2024-01-15T13:14:27;22.67;;;20.43;;
21402;SDS011;10862;51.886;17.078;2024-01-15T13:16:53;33.57;;;23.70;;
21402;SDS011;10862;51.886;17.078;2024-01-15T13:19:19;20.17;;;18.10;;
21402;SDS011;10862;51.886;17.078;2024-01-15T13:21:46;22.97;;;19.77;;
21402;SDS011;10862;51.886;17.078;2024-01-15T13:24:12;31.00;;;21.60;;
21402;SDS011;10862;51.886;17.078;2024-01-15T13:26:39;21.03;;;18.90;;
21402;SDS011;10862;51.886;17.078;2024-01-15T13:29:05;26.53;;;20.77;;
21402;SDS011;10862;51.886;17.078;2024-01-15T13:31:31;39.47;;;21.73;;
21402;SDS011;10862;51.886;17.078;2024-01-15T13:33:58;25.10;;;22.33;;
21402;SDS011;10862;51.886;17.078;2024-01-15T13:36:27;30.37;;;22.83;;
21402;SDS011;10862;51.886;17.078;2024-01-15T13:38:53;29.33;;;22.33;;
21402;SDS011;10862;51.886;17.078;2024-01-15T13:41:20;31.50;;;24.50;;
21402;SDS011;10862;51.886;17.078;2024-01-15T13:43:55;37.43;;;24.57;;
21402;SDS011;10862;51.886;17.078;2024-01-15T13:46:22;41.77;;;27.00;;
21402;SDS011;10862;51.886;17.078;2024-01-15T13:48:49;47.33;;;31.00;;
21402;SDS011;10862;51.886;17.078;2024-01-15T13:51:15;25.47;;;20.83;;
21402;SDS011;10862;51.886;17.078;2024-01-15T13:53:41;38.60;;;25.17;;
21402;SDS011;10862;51.886;17.078;2024-01-15T13:56:07;27.73;;;21.77;;
21402;SDS011;10862;51.886;17.078;2024-01-15T13:58:33;42.20;;;24.33;;
21402;SDS011;10862;51.886;17.078;2024-01-15T14:00:59;26.33;;;18.27;;
21402;SDS011;10862;51.886;17.078;2024-01-15T14:03:25;32.00;;;22.20;;
21402;SDS011;10862;51.886;17.078;2024-01-15T14:05:51;38.67;;;28.47;;
21402;SDS011;10862;51.886;17.078;2024-01-15T14:08:17;27.23;;;20.80;;
21402;SDS011;10862;51.886;17.078;2024-01-15T14:10:42;37.40;;;23.33;;
21402;SDS011;10862;51.886;17.078;2024-01-15T14:13:08;31.70;;;20.77;;
21402;SDS011;10862;51.886;17.078;2024-01-15T14:15:34;37.77;;;20.93;;
21402;SDS011;10862;51.886;17.078;2024-01-15T14:18:00;27.40;;;18.27;;
21402;SDS011;10862;51.886;17.078;2024-01-15T14:20:26;31.73;;;23.00;;
21402;SDS011;10862;51.886;17.078;2024-01-15T14:22:52;30.53;;;20.03;;